Home   Weather   Germany   Munich   Past weeks
Flag for Germany

Past Weather in Munich, Bavaria, Germany — Yesterday and Last 2 Weeks

Currently: 46 °F. Mostly cloudy. (Weather station: Oberpfaffenhofen, Germany). See more current weather

Past Weather in Munich — Graph

°F

Munich Temperature Yesterday

Maximum temperature yesterday: 66 °F (at 1:20 pm)
Minimum temperature yesterday: 32 °F (at 3:50 am)
Average temperature yesterday: 46 °F

High & Low Weather Summary for the Past Weeks

 TemperatureHumidityPressure
High66 °F (Feb 25, 1:20 pm)100% (Feb 18, 1:20 am)30.63 "Hg (Feb 18, 1:20 am)
Low3 °F (Feb 11, 10:20 pm)28% (Feb 25, 12:50 pm)29.95 "Hg (Feb 18, 7:20 pm)
Average37 °F72%30.30 "Hg
* Reported Feb 11 9:20 pm — Feb 26 9:20 pm, Munich. Weather by CustomWeather, © 2021

Note: Actual official high and low records may vary slightly from our data, if they occured in-between our weather recording intervals... More about our weather records

Munich Weather History for the Previous 24 Hours

Scroll right to see more
 ConditionsComfort  
Time TempWeatherWind HumidityBarometerVisibility
9:20 pm
Fri, Feb 26
48 °FMostly cloudy.7 mph76%30.39 "HgN/A
8:50 pm48 °FPassing clouds.5 mph76%30.39 "HgN/A
8:20 pm48 °FOvercast.8 mph76%30.39 "HgN/A
7:50 pm50 °FPassing clouds.9 mph71%30.39 "HgN/A
7:20 pm52 °FClear.7 mph62%30.36 "Hg10 mi
6:50 pm54 °FClear.7 mph51%30.36 "Hg10 mi
6:20 pm54 °FClear.3 mph47%30.36 "Hg10 mi
5:50 pm55 °FPassing clouds.5 mph44%30.33 "HgN/A
5:20 pm57 °FSunny.5 mph41%30.33 "Hg10 mi
4:50 pm57 °FSunny.5 mph44%30.33 "Hg10 mi
4:20 pm59 °FSunny.8 mph39%30.33 "Hg10 mi
3:50 pm59 °FSunny.9 mph42%30.33 "Hg10 mi
3:20 pm61 °FPassing clouds.7 mph36%30.33 "HgN/A
2:50 pm61 °FPassing clouds.8 mph36%30.36 "HgN/A
2:20 pm61 °FPassing clouds.7 mph36%30.36 "HgN/A
1:50 pm61 °FPassing clouds.8 mph36%30.36 "HgN/A
1:20 pm61 °FPassing clouds.7 mph29%30.36 "HgN/A
12:50 pm61 °FPassing clouds.7 mph31%30.39 "HgN/A
12:20 pm59 °FPassing clouds.7 mph36%30.39 "HgN/A
11:50 am59 °FPassing clouds.8 mph39%30.39 "HgN/A
11:20 am57 °FSunny.8 mph39%30.39 "Hg10 mi
10:50 am55 °FSunny.8 mph41%30.39 "Hg10 mi
10:20 am54 °FSunny.9 mph44%30.39 "Hg10 mi
9:50 am52 °FSunny.9 mph47%30.39 "Hg10 mi
9:20 am50 °FSunny.8 mph54%30.39 "Hg10 mi
8:50 am45 °FSunny.5 mph66%30.39 "Hg10 mi
8:20 am43 °FSunny.6 mph61%30.42 "Hg10 mi
7:50 am41 °FSunny.5 mph66%30.39 "Hg10 mi
7:20 am39 °FSunny.6 mph70%30.39 "Hg10 mi
6:50 am39 °FClear.7 mph70%30.39 "Hg10 mi
6:20 am36 °FClear.7 mph75%30.39 "HgN/A
5:50 am39 °FClear.9 mph70%30.42 "HgN/A
5:20 am39 °FClear.10 mph70%30.42 "HgN/A
4:50 am39 °FClear.12 mph70%30.39 "HgN/A
4:20 am41 °FClear.12 mph66%30.39 "HgN/A
3:50 am39 °FClear.9 mph70%30.39 "HgN/A
3:20 am37 °FClear.12 mph75%30.39 "HgN/A
2:20 am37 °FClear.10 mph81%30.39 "HgN/A
1:50 am37 °FClear.8 mph81%30.39 "HgN/A
1:20 am39 °FClear.8 mph75%30.39 "HgN/A
12:50 am36 °FClear.10 mph87%30.39 "HgN/A
12:20 am41 °FClear.7 mph76%30.39 "HgN/A
11:50 pm
Thu, Feb 25
34 °FClear.6 mph87%30.39 "HgN/A
11:20 pm37 °FClear.3 mph81%30.39 "HgN/A
10:50 pm34 °FClear.6 mph87%30.39 "HgN/A
10:20 pm37 °FClear.5 mph81%30.39 "HgN/A
Weather by CustomWeather, © 2021

See weather overview